sensor_id;sensor_type;location;lat;lon;timestamp;temperature;humidity
42085;DHT22;27746;52.228;20.890;2023-05-14T00:00:12;14.30;74.40
42085;DHT22;27746;52.228;20.890;2023-05-14T00:02:40;14.30;74.80
42085;DHT22;27746;52.228;20.890;2023-05-14T00:05:08;14.30;74.80
42085;DHT22;27746;52.228;20.890;2023-05-14T00:07:35;14.40;75.00
42085;DHT22;27746;52.228;20.890;2023-05-14T00:10:02;14.40;74.70
42085;DHT22;27746;52.228;20.890;2023-05-14T00:12:29;14.40;74.00
42085;DHT22;27746;52.228;20.890;2023-05-14T00:14:56;14.40;73.40
42085;DHT22;27746;52.228;20.890;2023-05-14T00:17:23;14.30;73.20
42085;DHT22;27746;52.228;20.890;2023-05-14T00:19:51;14.30;72.80
42085;DHT22;27746;52.228;20.890;2023-05-14T00:22:18;14.40;73.20
42085;DHT22;27746;52.228;20.890;2023-05-14T00:24:45;14.30;73.30
42085;DHT22;27746;52.228;20.890;2023-05-14T00:27:11;14.20;73.40
42085;DHT22;27746;52.228;20.890;2023-05-14T00:29:39;14.20;73.60
42085;DHT22;27746;52.228;20.890;2023-05-14T00:32:06;14.20;73.80
42085;DHT22;27746;52.228;20.890;2023-05-14T00:34:33;14.20;74.00
42085;DHT22;27746;52.228;20.890;2023-05-14T00:37:02;14.20;74.10
42085;DHT22;27746;52.228;20.890;2023-05-14T00:39:29;14.10;74.30
42085;DHT22;27746;52.228;20.890;2023-05-14T00:41:56;14.10;74.30
42085;DHT22;27746;52.228;20.890;2023-05-14T00:44:22;14.00;74.60
42085;DHT22;27746;52.228;20.890;2023-05-14T00:46:49;14.00;74.70
42085;DHT22;27746;52.228;20.890;2023-05-14T00:49:16;14.10;75.00
42085;DHT22;27746;52.228;20.890;2023-05-14T00:51:43;14.00;75.10
42085;DHT22;27746;52.228;20.890;2023-05-14T00:54:13;13.90;75.10
42085;DHT22;27746;52.228;20.890;2023-05-14T00:56:41;13.90;75.40
42085;DHT22;27746;52.228;20.890;2023-05-14T00:59:08;13.90;75.50
42085;DHT22;27746;52.228;20.890;2023-05-14T01:01:35;13.90;75.50
42085;DHT22;27746;52.228;20.890;2023-05-14T01:04:03;13.80;75.70
42085;DHT22;27746;52.228;20.890;2023-05-14T01:06:38;13.80;75.90
42085;DHT22;27746;52.228;20.890;2023-05-14T01:09:11;13.80;76.10
42085;DHT22;27746;52.228;20.890;2023-05-14T01:11:45;13.70;76.30
42085;DHT22;27746;52.228;20.890;2023-05-14T01:14:13;13.70;76.40
42085;DHT22;27746;52.228;20.890;2023-05-14T01:16:44;13.70;76.50
42085;DHT22;27746;52.228;20.890;2023-05-14T01:19:20;13.70;76.60
42085;DHT22;27746;52.228;20.890;2023-05-14T01:21:48;13.60;76.80
42085;DHT22;27746;52.228;20.890;2023-05-14T01:24:15;13.60;77.50
42085;DHT22;27746;52.228;20.890;2023-05-14T01:26:42;13.60;77.20
42085;DHT22;27746;52.228;20.890;2023-05-14T01:29:14;13.60;77.50
42085;DHT22;27746;52.228;20.890;2023-05-14T01:31:43;13.50;77.60
42085;DHT22;27746;52.228;20.890;2023-05-14T01:34:11;13.50;77.90
42085;DHT22;27746;52.228;20.890;2023-05-14T01:36:40;13.50;78.00
42085;DHT22;27746;52.228;20.890;2023-05-14T01:39:09;13.50;78.20
42085;DHT22;27746;52.228;20.890;2023-05-14T01:41:37;13.40;78.40
42085;DHT22;27746;52.228;20.890;2023-05-14T01:44:07;13.40;78.60
42085;DHT22;27746;52.228;20.890;2023-05-14T01:46:34;13.40;78.80
42085;DHT22;27746;52.228;20.890;2023-05-14T01:49:01;13.40;79.50
42085;DHT22;27746;52.228;20.890;2023-05-14T01:51:28;13.30;79.20
42085;DHT22;27746;52.228;20.890;2023-05-14T01:53:55;10.70;78.00
42085;DHT22;27746;52.228;20.890;2023-05-14T01:56:23;13.20;79.60
42085;DHT22;27746;52.228;20.890;2023-05-14T01:58:51;13.20;79.70
42085;DHT22;27746;52.228;20.890;2023-05-14T02:01:20;13.20;80.10
42085;DHT22;27746;52.228;20.890;2023-05-14T02:03:47;13.20;79.90
42085;DHT22;27746;52.228;20.890;2023-05-14T02:06:14;13.10;80.20
42085;DHT22;27746;52.228;20.890;2023-05-14T02:08:41;13.10;80.70
42085;DHT22;27746;52.228;20.890;2023-05-14T02:11:07;13.10;80.90
42085;DHT22;27746;52.228;20.890;2023-05-14T02:13:36;13.00;80.90
42085;DHT22;27746;52.228;20.890;2023-05-14T02:16:03;13.00;81.10
42085;DHT22;27746;52.228;20.890;2023-05-14T02:18:30;13.00;81.60
42085;DHT22;27746;52.228;20.890;2023-05-14T02:20:57;12.90;81.70
42085;DHT22;27746;52.228;20.890;2023-05-14T02:23:25;12.90;81.80
42085;DHT22;27746;52.228;20.890;2023-05-14T02:25:52;12.90;81.90
42085;DHT22;27746;52.228;20.890;2023-05-14T02:28:19;12.80;82.30
42085;DHT22;27746;52.228;20.890;2023-05-14T02:30:47;12.80;82.20
42085;DHT22;27746;52.228;20.890;2023-05-14T02:33:14;12.80;82.90
42085;DHT22;27746;52.228;20.890;2023-05-14T02:35:40;12.70;83.00
42085;DHT22;27746;52.228;20.890;2023-05-14T02:38:07;12.70;83.30
42085;DHT22;27746;52.228;20.890;2023-05-14T02:40:35;12.60;83.40
42085;DHT22;27746;52.228;20.890;2023-05-14T02:43:02;12.70;83.50
42085;DHT22;27746;52.228;20.890;2023-05-14T02:45:30;12.60;83.60
42085;DHT22;27746;52.228;20.890;2023-05-14T02:47:58;12.60;83.80
42085;DHT22;27746;52.228;20.890;2023-05-14T02:50:25;12.50;83.80
42085;DHT22;27746;52.228;20.890;2023-05-14T02:52:52;12.50;83.90
42085;DHT22;27746;52.228;20.890;2023-05-14T02:55:18;12.50;83.90
42085;DHT22;27746;52.228;20.890;2023-05-14T02:57:45;12.50;84.10
42085;DHT22;27746;52.228;20.890;2023-05-14T03:00:13;12.50;84.30
42085;DHT22;27746;52.228;20.890;2023-05-14T03:02:39;12.40;84.40
42085;DHT22;27746;52.228;20.890;2023-05-14T03:05:09;12.40;84.90
42085;DHT22;27746;52.228;20.890;2023-05-14T03:07:36;12.40;84.60
42085;DHT22;27746;52.228;20.890;2023-05-14T03:10:04;12.40;84.70
42085;DHT22;27746;52.228;20.890;2023-05-14T03:12:31;12.40;85.00
42085;DHT22;27746;52.228;20.890;2023-05-14T03:14:58;12.40;85.00
42085;DHT22;27746;52.228;20.890;2023-05-14T03:17:24;12.40;84.80
42085;DHT22;27746;52.228;20.890;2023-05-14T03:19:51;12.50;84.70
42085;DHT22;27746;52.228;20.890;2023-05-14T03:22:19;12.40;85.00
42085;DHT22;27746;52.228;20.890;2023-05-14T03:24:46;12.40;85.30
42085;DHT22;27746;52.228;20.890;2023-05-14T03:27:13;12.50;85.50
42085;DHT22;27746;52.228;20.890;2023-05-14T03:29:40;12.50;85.40
42085;DHT22;27746;52.228;20.890;2023-05-14T03:32:07;12.50;85.50
42085;DHT22;27746;52.228;20.890;2023-05-14T03:34:36;12.60;85.70
42085;DHT22;27746;52.228;20.890;2023-05-14T03:37:03;12.50;85.50
42085;DHT22;27746;52.228;20.890;2023-05-14T03:39:31;12.60;85.90
42085;DHT22;27746;52.228;20.890;2023-05-14T03:41:58;12.50;85.90
42085;DHT22;27746;52.228;20.890;2023-05-14T03:44:25;12.60;86.30
42085;DHT22;27746;52.228;20.890;2023-05-14T03:46:52;12.60;86.40
42085;DHT22;27746;52.228;20.890;2023-05-14T03:49:19;12.50;86.10
42085;DHT22;27746;52.228;20.890;2023-05-14T03:51:46;12.60;86.30
42085;DHT22;27746;52.228;20.890;2023-05-14T03:54:12;12.60;86.50
42085;DHT22;27746;52.228;20.890;2023-05-14T03:56:41;12.60;86.90
42085;DHT22;27746;52.228;20.890;2023-05-14T03:59:07;12.60;86.70
42085;DHT22;27746;52.228;20.890;2023-05-14T04:01:34;12.60;86.90
42085;DHT22;27746;52.228;20.890;2023-05-14T04:04:01;12.60;87.20
42085;DHT22;27746;52.228;20.890;2023-05-14T04:06:28;12.60;87.00
42085;DHT22;27746;52.228;20.890;2023-05-14T04:08:55;12.60;87.40
42085;DHT22;27746;52.228;20.890;2023-05-14T04:11:22;12.60;87.20
42085;DHT22;27746;52.228;20.890;2023-05-14T04:13:50;12.60;87.80
42085;DHT22;27746;52.228;20.890;2023-05-14T04:16:17;12.70;88.00
42085;DHT22;27746;52.228;20.890;2023-05-14T04:18:44;12.70;87.90
42085;DHT22;27746;52.228;20.890;2023-05-14T04:21:11;12.80;88.00
42085;DHT22;27746;52.228;20.890;2023-05-14T04:23:38;12.80;87.80
42085;DHT22;27746;52.228;20.890;2023-05-14T04:26:04;12.90;87.60
42085;DHT22;27746;52.228;20.890;2023-05-14T04:28:31;12.90;87.80
42085;DHT22;27746;52.228;20.890;2023-05-14T04:30:59;12.90;87.90
42085;DHT22;27746;52.228;20.890;2023-05-14T04:33:26;12.90;87.60
42085;DHT22;27746;52.228;20.890;2023-05-14T04:35:53;13.00;87.90
42085;DHT22;27746;52.228;20.890;2023-05-14T04:38:20;13.00;88.10
42085;DHT22;27746;52.228;20.890;2023-05-14T04:40:47;13.00;87.60
42085;DHT22;27746;52.228;20.890;2023-05-14T04:43:14;13.10;87.40
42085;DHT22;27746;52.228;20.890;2023-05-14T04:45:42;13.10;87.40
42085;DHT22;27746;52.228;20.890;2023-05-14T04:48:10;13.20;87.40
42085;DHT22;27746;52.228;20.890;2023-05-14T04:50:37;13.20;87.20
42085;DHT22;27746;52.228;20.890;2023-05-14T04:53:04;13.30;87.80
42085;DHT22;27746;52.228;20.890;2023-05-14T04:55:30;13.30;87.30
42085;DHT22;27746;52.228;20.890;2023-05-14T04:57:57;13.40;87.60
42085;DHT22;27746;52.228;20.890;2023-05-14T05:00:24;13.50;86.80
42085;DHT22;27746;52.228;20.890;2023-05-14T05:02:51;13.60;86.90
42085;DHT22;27746;52.228;20.890;2023-05-14T05:05:20;13.70;86.20
42085;DHT22;27746;52.228;20.890;2023-05-14T05:07:46;13.80;86.20
42085;DHT22;27746;52.228;20.890;2023-05-14T05:10:13;13.90;86.20
42085;DHT22;27746;52.228;20.890;2023-05-14T05:12:40;14.00;86.00
42085;DHT22;27746;52.228;20.890;2023-05-14T05:15:08;14.10;85.20
42085;DHT22;27746;52.228;20.890;2023-05-14T05:17:35;14.20;84.40
42085;DHT22;27746;52.228;20.890;2023-05-14T05:20:02;14.30;82.40
42085;DHT22;27746;52.228;20.890;2023-05-14T05:22:31;14.40;82.10
42085;DHT22;27746;52.228;20.890;2023-05-14T05:25:07;14.50;82.40
42085;DHT22;27746;52.228;20.890;2023-05-14T05:27:34;14.60;81.90
42085;DHT22;27746;52.228;20.890;2023-05-14T05:30:01;14.70;82.50
42085;DHT22;27746;52.228;20.890;2023-05-14T05:32:28;14.80;82.20
42085;DHT22;27746;52.228;20.890;2023-05-14T05:34:55;14.90;81.60
42085;DHT22;27746;52.228;20.890;2023-05-14T05:37:22;15.00;81.00
42085;DHT22;27746;52.228;20.890;2023-05-14T05:39:50;15.10;80.30
42085;DHT22;27746;52.228;20.890;2023-05-14T05:42:18;15.20;80.40
42085;DHT22;27746;52.228;20.890;2023-05-14T05:44:45;15.30;79.10
42085;DHT22;27746;52.228;20.890;2023-05-14T05:47:12;15.40;78.10
42085;DHT22;27746;52.228;20.890;2023-05-14T05:49:38;15.50;78.40
42085;DHT22;27746;52.228;20.890;2023-05-14T05:52:05;15.60;78.30
42085;DHT22;27746;52.228;20.890;2023-05-14T05:54:32;15.60;79.20
42085;DHT22;27746;52.228;20.890;2023-05-14T05:57:01;15.70;78.20
42085;DHT22;27746;52.228;20.890;2023-05-14T05:59:28;15.80;78.90
42085;DHT22;27746;52.228;20.890;2023-05-14T06:01:55;16.00;78.60
42085;DHT22;27746;52.228;20.890;2023-05-14T06:04:21;16.10;77.90
42085;DHT22;27746;52.228;20.890;2023-05-14T06:06:48;16.20;76.80
42085;DHT22;27746;52.228;20.890;2023-05-14T06:09:15;16.30;75.80
42085;DHT22;27746;52.228;20.890;2023-05-14T06:11:42;16.40;75.40
42085;DHT22;27746;52.228;20.890;2023-05-14T06:14:10;16.40;75.00
42085;DHT22;27746;52.228;20.890;2023-05-14T06:16:37;16.50;74.00
42085;DHT22;27746;52.228;20.890;2023-05-14T06:19:04;16.60;73.20
42085;DHT22;27746;52.228;20.890;2023-05-14T06:21:31;16.60;72.60
42085;DHT22;27746;52.228;20.890;2023-05-14T06:23:57;16.70;72.90
42085;DHT22;27746;52.228;20.890;2023-05-14T06:26:24;16.80;73.50
42085;DHT22;27746;52.228;20.890;2023-05-14T06:28:51;16.90;73.10
42085;DHT22;27746;52.228;20.890;2023-05-14T06:31:20;16.90;72.60
42085;DHT22;27746;52.228;20.890;2023-05-14T06:33:46;17.00;72.20
42085;DHT22;27746;52.228;20.890;2023-05-14T06:36:13;17.10;71.70
42085;DHT22;27746;52.228;20.890;2023-05-14T06:38:40;17.20;71.00
42085;DHT22;27746;52.228;20.890;2023-05-14T06:41:07;17.30;70.10
42085;DHT22;27746;52.228;20.890;2023-05-14T06:43:34;17.40;72.00
42085;DHT22;27746;52.228;20.890;2023-05-14T06:46:00;17.50;71.10
42085;DHT22;27746;52.228;20.890;2023-05-14T06:48:29;17.60;72.10
42085;DHT22;27746;52.228;20.890;2023-05-14T06:50:56;17.70;69.20
42085;DHT22;27746;52.228;20.890;2023-05-14T06:53:23;17.80;67.70
42085;DHT22;27746;52.228;20.890;2023-05-14T06:55:50;17.90;67.50
42085;DHT22;27746;52.228;20.890;2023-05-14T06:58:16;17.90;67.00
42085;DHT22;27746;52.228;20.890;2023-05-14T07:00:43;18.10;68.60
42085;DHT22;27746;52.228;20.890;2023-05-14T07:03:10;18.20;66.80
42085;DHT22;27746;52.228;20.890;2023-05-14T07:05:39;18.40;67.00
42085;DHT22;27746;52.228;20.890;2023-05-14T07:08:06;18.50;66.60
42085;DHT22;27746;52.228;20.890;2023-05-14T07:10:33;18.60;65.80
42085;DHT22;27746;52.228;20.890;2023-05-14T07:13:00;18.70;64.60
42085;DHT22;27746;52.228;20.890;2023-05-14T07:15:28;18.80;63.40
42085;DHT22;27746;52.228;20.890;2023-05-14T07:17:54;18.80;64.40
42085;DHT22;27746;52.228;20.890;2023-05-14T07:20:21;18.80;62.60
42085;DHT22;27746;52.228;20.890;2023-05-14T07:22:51;18.90;62.30
42085;DHT22;27746;52.228;20.890;2023-05-14T07:25:18;18.90;63.20
42085;DHT22;27746;52.228;20.890;2023-05-14T07:27:45;19.00;62.40
42085;DHT22;27746;52.228;20.890;2023-05-14T07:30:12;19.10;61.30
42085;DHT22;27746;52.228;20.890;2023-05-14T07:32:39;19.10;61.60
42085;DHT22;27746;52.228;20.890;2023-05-14T07:35:07;19.10;62.50
42085;DHT22;27746;52.228;20.890;2023-05-14T07:37:34;19.00;62.80
42085;DHT22;27746;52.228;20.890;2023-05-14T07:40:03;19.00;63.10
42085;DHT22;27746;52.228;20.890;2023-05-14T07:42:30;20.80;63.30
42085;DHT22;27746;52.228;20.890;2023-05-14T07:44:57;19.00;63.10
42085;DHT22;27746;52.228;20.890;2023-05-14T07:47:24;19.10;62.10
42085;DHT22;27746;52.228;20.890;2023-05-14T07:49:53;19.10;63.30
42085;DHT22;27746;52.228;20.890;2023-05-14T07:52:20;19.20;62.40
42085;DHT22;27746;52.228;20.890;2023-05-14T07:54:47;19.30;61.90
42085;DHT22;27746;52.228;20.890;2023-05-14T07:57:15;19.30;61.30
42085;DHT22;27746;52.228;20.890;2023-05-14T07:59:42;19.40;61.10
42085;DHT22;27746;52.228;20.890;2023-05-14T08:02:09;19.40;60.30
42085;DHT22;27746;52.228;20.890;2023-05-14T08:04:37;19.40;59.00
42085;DHT22;27746;52.228;20.890;2023-05-14T08:07:04;19.50;58.10
42085;DHT22;27746;52.228;20.890;2023-05-14T08:09:32;19.60;59.30
42085;DHT22;27746;52.228;20.890;2023-05-14T08:11:59;19.70;59.10
42085;DHT22;27746;52.228;20.890;2023-05-14T08:14:27;19.80;57.90
42085;DHT22;27746;52.228;20.890;2023-05-14T08:16:54;20.70;58.00
42085;DHT22;27746;52.228;20.890;2023-05-14T08:19:21;19.90;57.00
42085;DHT22;27746;52.228;20.890;2023-05-14T08:21:48;19.80;57.10
42085;DHT22;27746;52.228;20.890;2023-05-14T08:24:15;19.80;58.20
42085;DHT22;27746;52.228;20.890;2023-05-14T08:26:44;19.80;57.90
42085;DHT22;27746;52.228;20.890;2023-05-14T08:29:11;19.80;58.00
42085;DHT22;27746;52.228;20.890;2023-05-14T08:31:40;19.80;58.50
42085;DHT22;27746;52.228;20.890;2023-05-14T08:34:06;19.90;59.40
42085;DHT22;27746;52.228;20.890;2023-05-14T08:36:33;20.00;59.20
42085;DHT22;27746;52.228;20.890;2023-05-14T08:39:00;20.00;59.30
42085;DHT22;27746;52.228;20.890;2023-05-14T08:41:27;20.10;60.00
42085;DHT22;27746;52.228;20.890;2023-05-14T08:43:58;20.20;59.10
42085;DHT22;27746;52.228;20.890;2023-05-14T08:46:28;20.30;59.90
42085;DHT22;27746;52.228;20.890;2023-05-14T08:49:01;20.40;60.00
42085;DHT22;27746;52.228;20.890;2023-05-14T08:51:30;20.50;59.10
42085;DHT22;27746;52.228;20.890;2023-05-14T08:53:58;20.60;58.90
42085;DHT22;27746;52.228;20.890;2023-05-14T08:56:29;20.50;57.50
42085;DHT22;27746;52.228;20.890;2023-05-14T08:58:57;20.60;57.00
42085;DHT22;27746;52.228;20.890;2023-05-14T09:01:25;20.70;56.60
42085;DHT22;27746;52.228;20.890;2023-05-14T09:03:53;20.70;56.40
42085;DHT22;27746;52.228;20.890;2023-05-14T09:06:21;20.80;56.20
42085;DHT22;27746;52.228;20.890;2023-05-14T09:08:50;20.90;55.80
42085;DHT22;27746;52.228;20.890;2023-05-14T09:11:17;20.90;55.40
42085;DHT22;27746;52.228;20.890;2023-05-14T09:13:44;20.90;55.40
42085;DHT22;27746;52.228;20.890;2023-05-14T09:16:11;21.00;55.30
42085;DHT22;27746;52.228;20.890;2023-05-14T09:18:42;21.00;55.30
42085;DHT22;27746;52.228;20.890;2023-05-14T09:21:09;21.10;56.20
42085;DHT22;27746;52.228;20.890;2023-05-14T09:23:41;21.10;54.70
42085;DHT22;27746;52.228;20.890;2023-05-14T09:26:08;21.10;55.00
42085;DHT22;27746;52.228;20.890;2023-05-14T09:28:35;21.20;55.90
42085;DHT22;27746;52.228;20.890;2023-05-14T09:31:05;21.20;54.90
42085;DHT22;27746;52.228;20.890;2023-05-14T09:33:31;21.30;55.20
42085;DHT22;27746;52.228;20.890;2023-05-14T09:36:02;21.40;54.40
42085;DHT22;27746;52.228;20.890;2023-05-14T09:38:29;21.40;54.40
42085;DHT22;27746;52.228;20.890;2023-05-14T09:40:59;21.40;54.40
42085;DHT22;27746;52.228;20.890;2023-05-14T09:43:29;21.50;53.90
42085;DHT22;27746;52.228;20.890;2023-05-14T09:45:56;21.60;54.10
42085;DHT22;27746;52.228;20.890;2023-05-14T09:48:23;21.60;53.50
42085;DHT22;27746;52.228;20.890;2023-05-14T09:50:50;21.60;53.00
42085;DHT22;27746;52.228;20.890;2023-05-14T09:53:17;21.60;54.20
42085;DHT22;27746;52.228;20.890;2023-05-14T09:55:44;21.70;53.80
42085;DHT22;27746;52.228;20.890;2023-05-14T09:58:13;21.90;53.60
42085;DHT22;27746;52.228;20.890;2023-05-14T10:00:43;21.90;52.00
42085;DHT22;27746;52.228;20.890;2023-05-14T10:03:13;22.00;52.30
42085;DHT22;27746;52.228;20.890;2023-05-14T10:05:41;22.20;52.20
42085;DHT22;27746;52.228;20.890;2023-05-14T10:08:13;22.30;51.30
42085;DHT22;27746;52.228;20.890;2023-05-14T10:10:45;22.40;51.40
42085;DHT22;27746;52.228;20.890;2023-05-14T10:13:19;22.60;50.70
42085;DHT22;27746;52.228;20.890;2023-05-14T10:15:48;22.70;51.30
42085;DHT22;27746;52.228;20.890;2023-05-14T10:18:19;22.80;51.40
42085;DHT22;27746;52.228;20.890;2023-05-14T10:20:55;22.80;50.00
42085;DHT22;27746;52.228;20.890;2023-05-14T10:23:22;22.80;50.80
42085;DHT22;27746;52.228;20.890;2023-05-14T10:25:50;22.90;50.10
42085;DHT22;27746;52.228;20.890;2023-05-14T10:28:18;23.00;50.40
42085;DHT22;27746;52.228;20.890;2023-05-14T10:30:45;23.00;50.20
42085;DHT22;27746;52.228;20.890;2023-05-14T10:33:15;22.80;50.60
42085;DHT22;27746;52.228;20.890;2023-05-14T10:36:00;22.80;50.70
42085;DHT22;27746;52.228;20.890;2023-05-14T10:38:27;22.80;50.70
42085;DHT22;27746;52.228;20.890;2023-05-14T10:41:02;22.90;50.10
42085;DHT22;27746;52.228;20.890;2023-05-14T10:43:37;22.80;50.30
42085;DHT22;27746;52.228;20.890;2023-05-14T10:46:05;22.90;50.50
42085;DHT22;27746;52.228;20.890;2023-05-14T10:48:32;23.00;50.10
42085;DHT22;27746;52.228;20.890;2023-05-14T10:51:00;22.80;50.30
42085;DHT22;27746;52.228;20.890;2023-05-14T10:53:32;22.80;50.60
42085;DHT22;27746;52.228;20.890;2023-05-14T10:56:02;22.90;52.10
42085;DHT22;27746;52.228;20.890;2023-05-14T10:58:34;22.90;51.50
42085;DHT22;27746;52.228;20.890;2023-05-14T11:01:01;22.80;51.80
42085;DHT22;27746;52.228;20.890;2023-05-14T11:03:30;23.00;52.10
42085;DHT22;27746;52.228;20.890;2023-05-14T11:05:59;23.10;50.60
42085;DHT22;27746;52.228;20.890;2023-05-14T11:08:30;22.90;50.00
42085;DHT22;27746;52.228;20.890;2023-05-14T11:10:58;23.00;50.50
42085;DHT22;27746;52.228;20.890;2023-05-14T11:13:25;23.10;49.60
42085;DHT22;27746;52.228;20.890;2023-05-14T11:15:54;23.10;49.70
42085;DHT22;27746;52.228;20.890;2023-05-14T11:18:28;23.10;50.40
42085;DHT22;27746;52.228;20.890;2023-05-14T11:20:57;23.20;50.10
42085;DHT22;27746;52.228;20.890;2023-05-14T11:23:24;23.20;50.70
42085;DHT22;27746;52.228;20.890;2023-05-14T11:25:54;23.20;50.90
42085;DHT22;27746;52.228;20.890;2023-05-14T11:28:24;23.30;49.60
42085;DHT22;27746;52.228;20.890;2023-05-14T11:30:52;23.30;49.80
42085;DHT22;27746;52.228;20.890;2023-05-14T11:33:20;23.20;49.50
42085;DHT22;27746;52.228;20.890;2023-05-14T11:35:47;23.20;48.60
42085;DHT22;27746;52.228;20.890;2023-05-14T11:38:15;23.20;48.50
42085;DHT22;27746;52.228;20.890;2023-05-14T11:40:42;23.30;48.20
42085;DHT22;27746;52.228;20.890;2023-05-14T11:43:16;23.20;48.50
42085;DHT22;27746;52.228;20.890;2023-05-14T11:45:48;23.30;48.70
42085;DHT22;27746;52.228;20.890;2023-05-14T11:48:15;23.30;48.40
42085;DHT22;27746;52.228;20.890;2023-05-14T11:50:46;23.20;48.80
42085;DHT22;27746;52.228;20.890;2023-05-14T11:53:16;23.40;48.60
42085;DHT22;27746;52.228;20.890;2023-05-14T11:55:44;23.20;48.80
42085;DHT22;27746;52.228;20.890;2023-05-14T11:58:11;22.10;48.90
42085;DHT22;27746;52.228;20.890;2023-05-14T12:00:38;23.10;49.50
42085;DHT22;27746;52.228;20.890;2023-05-14T12:03:06;23.00;49.80
42085;DHT22;27746;52.228;20.890;2023-05-14T12:05:37;23.00;49.70
42085;DHT22;27746;52.228;20.890;2023-05-14T12:08:18;23.00;50.40
42085;DHT22;27746;52.228;20.890;2023-05-14T12:10:46;23.20;49.70
42085;DHT22;27746;52.228;20.890;2023-05-14T12:13:14;23.30;49.60
42085;DHT22;27746;52.228;20.890;2023-05-14T12:15:44;23.20;50.40
42085;DHT22;27746;52.228;20.890;2023-05-14T12:18:11;23.20;50.20
42085;DHT22;27746;52.228;20.890;2023-05-14T12:20:38;23.20;50.20
42085;DHT22;27746;52.228;20.890;2023-05-14T12:23:10;23.40;49.50
42085;DHT22;27746;52.228;20.890;2023-05-14T12:25:37;23.30;49.40
42085;DHT22;27746;52.228;20.890;2023-05-14T12:28:13;23.40;50.00
42085;DHT22;27746;52.228;20.890;2023-05-14T12:30:40;23.50;49.70
42085;DHT22;27746;52.228;20.890;2023-05-14T12:33:07;23.60;50.00
42085;DHT22;27746;52.228;20.890;2023-05-14T12:35:34;23.70;48.60
42085;DHT22;27746;52.228;20.890;2023-05-14T12:38:02;23.80;48.50
42085;DHT22;27746;52.228;20.890;2023-05-14T12:40:30;23.80;48.50
42085;DHT22;27746;52.228;20.890;2023-05-14T12:42:57;23.80;48.80
42085;DHT22;27746;52.228;20.890;2023-05-14T12:45:24;25.50;50.40
42085;DHT22;27746;52.228;20.890;2023-05-14T12:47:51;23.70;49.20
42085;DHT22;27746;52.228;20.890;2023-05-14T12:50:17;23.70;49.60
42085;DHT22;27746;52.228;20.890;2023-05-14T12:52:45;23.80;49.90
42085;DHT22;27746;52.228;20.890;2023-05-14T12:55:12;24.00;49.60
42085;DHT22;27746;52.228;20.890;2023-05-14T12:57:40;24.00;49.70
42085;DHT22;27746;52.228;20.890;2023-05-14T13:00:08;24.10;49.50
42085;DHT22;27746;52.228;20.890;2023-05-14T13:02:36;24.10;48.70
42085;DHT22;27746;52.228;20.890;2023-05-14T13:05:03;24.00;48.80
42085;DHT22;27746;52.228;20.890;2023-05-14T13:07:30;24.00;48.70
42085;DHT22;27746;52.228;20.890;2023-05-14T13:09:57;23.90;48.90
42085;DHT22;27746;52.228;20.890;2023-05-14T13:12:24;24.00;49.40
42085;DHT22;27746;52.228;20.890;2023-05-14T13:14:52;24.00;49.30
42085;DHT22;27746;52.228;20.890;2023-05-14T13:17:19;24.10;49.50
42085;DHT22;27746;52.228;20.890;2023-05-14T13:19:45;24.00;49.10
42085;DHT22;27746;52.228;20.890;2023-05-14T13:22:12;24.00;48.90
42085;DHT22;27746;52.228;20.890;2023-05-14T13:24:41;23.60;49.00
42085;DHT22;27746;52.228;20.890;2023-05-14T13:27:08;26.10;50.20
42085;DHT22;27746;52.228;20.890;2023-05-14T13:29:35;24.20;48.70
42085;DHT22;27746;52.228;20.890;2023-05-14T13:32:03;24.10;49.70
42085;DHT22;27746;52.228;20.890;2023-05-14T13:34:30;24.00;49.60
42085;DHT22;27746;52.228;20.890;2023-05-14T13:36:59;24.10;49.90
42085;DHT22;27746;52.228;20.890;2023-05-14T13:39:26;24.20;50.60
42085;DHT22;27746;52.228;20.890;2023-05-14T13:41:53;24.20;49.60
42085;DHT22;27746;52.228;20.890;2023-05-14T13:44:21;24.10;49.40
42085;DHT22;27746;52.228;20.890;2023-05-14T13:46:49;24.20;49.40
42085;DHT22;27746;52.228;20.890;2023-05-14T13:49:19;23.80;49.30
42085;DHT22;27746;52.228;20.890;2023-05-14T13:51:46;23.60;49.60
42085;DHT22;27746;52.228;20.890;2023-05-14T13:54:13;23.30;50.00
42085;DHT22;27746;52.228;20.890;2023-05-14T13:56:40;23.30;50.30
42085;DHT22;27746;52.228;20.890;2023-05-14T13:59:09;23.40;50.50
42085;DHT22;27746;52.228;20.890;2023-05-14T14:01:37;23.50;49.90
42085;DHT22;27746;52.228;20.890;2023-05-14T14:04:04;24.80;50.80
42085;DHT22;27746;52.228;20.890;2023-05-14T14:06:33;23.60;50.70
42085;DHT22;27746;52.228;20.890;2023-05-14T14:09:00;23.60;49.90
42085;DHT22;27746;52.228;20.890;2023-05-14T14:11:27;23.50;51.40
42085;DHT22;27746;52.228;20.890;2023-05-14T14:13:54;23.50;50.40
42085;DHT22;27746;52.228;20.890;2023-05-14T14:16:21;23.50;49.40
42085;DHT22;27746;52.228;20.890;2023-05-14T14:18:47;23.40;49.80
42085;DHT22;27746;52.228;20.890;2023-05-14T14:21:17;23.40;49.60
42085;DHT22;27746;52.228;20.890;2023-05-14T14:23:46;23.30;50.00
42085;DHT22;27746;52.228;20.890;2023-05-14T14:26:13;23.40;50.20
42085;DHT22;27746;52.228;20.890;2023-05-14T14:28:40;23.40;50.00
42085;DHT22;27746;52.228;20.890;2023-05-14T14:31:07;23.50;49.60
42085;DHT22;27746;52.228;20.890;2023-05-14T14:33:34;23.60;50.10
42085;DHT22;27746;52.228;20.890;2023-05-14T14:36:01;23.40;50.90
42085;DHT22;27746;52.228;20.890;2023-05-14T14:38:28;23.30;50.40
42085;DHT22;27746;52.228;20.890;2023-05-14T14:40:56;23.20;50.90
42085;DHT22;27746;52.228;20.890;2023-05-14T14:43:23;23.00;50.50
42085;DHT22;27746;52.228;20.890;2023-05-14T14:45:50;23.00;51.00
42085;DHT22;27746;52.228;20.890;2023-05-14T14:48:25;22.90;50.70
42085;DHT22;27746;52.228;20.890;2023-05-14T14:50:52;22.90;50.50
42085;DHT22;27746;52.228;20.890;2023-05-14T14:53:19;22.80;50.60
42085;DHT22;27746;52.228;20.890;2023-05-14T14:55:47;22.80;50.60
42085;DHT22;27746;52.228;20.890;2023-05-14T14:58:16;22.70;51.00
42085;DHT22;27746;52.228;20.890;2023-05-14T15:00:43;22.50;50.80
42085;DHT22;27746;52.228;20.890;2023-05-14T15:03:10;22.50;50.60
42085;DHT22;27746;52.228;20.890;2023-05-14T15:05:39;22.50;51.10
42085;DHT22;27746;52.228;20.890;2023-05-14T15:08:06;22.60;51.20
42085;DHT22;27746;52.228;20.890;2023-05-14T15:10:33;22.60;51.10
42085;DHT22;27746;52.228;20.890;2023-05-14T15:13:03;22.50;50.90
42085;DHT22;27746;52.228;20.890;2023-05-14T15:15:31;22.50;51.30
42085;DHT22;27746;52.228;20.890;2023-05-14T15:17:58;22.50;52.50